sensor_id;sensor_type;location;lat;lon;timestamp;pressure;altitude;pressure_sealevel;temperature;humidity
66945;BME280;53853;51.982;5.928;2023-06-24T00:02:07;102357.66;;;19.18;76.20
66945;BME280;53853;51.982;5.928;2023-06-24T00:04:39;102351.91;;;19.21;76.30
66945;BME280;53853;51.982;5.928;2023-06-24T00:07:09;102351.75;;;19.23;76.21
66945;BME280;53853;51.982;5.928;2023-06-24T00:09:39;102354.28;;;19.24;76.39
66945;BME280;53853;51.982;5.928;2023-06-24T00:12:09;102348.69;;;19.26;77.13
66945;BME280;53853;51.982;5.928;2023-06-24T00:14:46;102347.84;;;19.25;76.74
66945;BME280;53853;51.982;5.928;2023-06-24T00:17:16;102347.00;;;19.25;77.33
66945;BME280;53853;51.982;5.928;2023-06-24T00:19:49;102343.47;;;19.24;77.53
66945;BME280;53853;51.982;5.928;2023-06-24T00:22:21;102353.59;;;19.22;76.85
66945;BME280;53853;51.982;5.928;2023-06-24T00:24:51;102351.22;;;19.19;76.75
66945;BME280;53853;51.982;5.928;2023-06-24T00:27:21;102351.22;;;19.19;76.88
66945;BME280;53853;51.982;5.928;2023-06-24T00:29:51;102357.50;;;19.19;77.44
66945;BME280;53853;51.982;5.928;2023-06-24T00:32:21;102350.38;;;19.18;77.27
66945;BME280;53853;51.982;5.928;2023-06-24T00:34:54;102356.81;;;19.17;76.90
66945;BME280;53853;51.982;5.928;2023-06-24T00:37:25;102357.81;;;19.16;76.91
66945;BME280;53853;51.982;5.928;2023-06-24T00:39:55;102364.94;;;19.17;76.96
66945;BME280;53853;51.982;5.928;2023-06-24T00:42:24;102362.22;;;19.17;77.11
66945;BME280;53853;51.982;5.928;2023-06-24T00:44:55;102361.84;;;19.21;77.49
66945;BME280;53853;51.982;5.928;2023-06-24T00:47:25;102358.81;;;19.24;77.40
66945;BME280;53853;51.982;5.928;2023-06-24T00:50:00;102359.69;;;19.24;77.66
66945;BME280;53853;51.982;5.928;2023-06-24T00:52:30;102353.06;;;19.27;77.57
66945;BME280;53853;51.982;5.928;2023-06-24T00:55:04;102361.88;;;19.29;77.53
66945;BME280;53853;51.982;5.928;2023-06-24T00:57:34;102366.94;;;19.32;77.86
66945;BME280;53853;51.982;5.928;2023-06-24T01:00:06;102364.91;;;19.34;77.91
66945;BME280;53853;51.982;5.928;2023-06-24T01:02:41;102361.19;;;19.35;77.81
66945;BME280;53853;51.982;5.928;2023-06-24T01:05:15;102360.81;;;19.38;77.58
66945;BME280;53853;51.982;5.928;2023-06-24T01:07:46;102356.78;;;19.42;77.72
66945;BME280;53853;51.982;5.928;2023-06-24T01:10:23;102347.50;;;19.45;78.08
66945;BME280;53853;51.982;5.928;2023-06-24T01:12:53;102336.50;;;19.46;78.25
66945;BME280;53853;51.982;5.928;2023-06-24T01:15:23;102345.63;;;19.45;77.68
66945;BME280;53853;51.982;5.928;2023-06-24T01:17:59;102347.50;;;19.45;77.54
66945;BME280;53853;51.982;5.928;2023-06-24T01:20:39;102343.25;;;19.42;77.31
66945;BME280;53853;51.982;5.928;2023-06-24T01:29:24;102347.84;;;19.33;76.75
66945;BME280;53853;51.982;5.928;2023-06-24T01:32:05;102343.44;;;19.32;77.39
66945;BME280;53853;51.982;5.928;2023-06-24T01:34:40;102347.31;;;19.30;77.06
66945;BME280;53853;51.982;5.928;2023-06-24T01:37:16;102345.66;;;19.29;78.09
66945;BME280;53853;51.982;5.928;2023-06-24T01:39:49;102343.13;;;19.27;78.21
66945;BME280;53853;51.982;5.928;2023-06-24T01:42:20;102330.13;;;19.23;78.49
66945;BME280;53853;51.982;5.928;2023-06-24T01:44:52;102337.03;;;19.17;78.05
66945;BME280;53853;51.982;5.928;2023-06-24T01:47:27;102337.38;;;19.14;78.27
66945;BME280;53853;51.982;5.928;2023-06-24T01:50:00;102342.28;;;19.10;78.50
66945;BME280;53853;51.982;5.928;2023-06-24T01:52:33;102347.84;;;19.09;78.13
66945;BME280;53853;51.982;5.928;2023-06-24T01:55:08;102346.69;;;19.11;78.41
66945;BME280;53853;51.982;5.928;2023-06-24T01:57:40;102342.78;;;19.14;78.67
66945;BME280;53853;51.982;5.928;2023-06-24T02:00:13;102347.19;;;19.15;78.62
66945;BME280;53853;51.982;5.928;2023-06-24T02:02:55;102348.03;;;19.15;78.56
66945;BME280;53853;51.982;5.928;2023-06-24T02:05:26;102344.31;;;19.16;78.45
66945;BME280;53853;51.982;5.928;2023-06-24T02:07:57;102340.41;;;19.19;79.15
66945;BME280;53853;51.982;5.928;2023-06-24T02:10:29;102341.28;;;19.19;79.41
66945;BME280;53853;51.982;5.928;2023-06-24T02:12:59;102344.47;;;19.23;79.60
66945;BME280;53853;51.982;5.928;2023-06-24T02:15:30;102340.75;;;19.24;79.79
66945;BME280;53853;51.982;5.928;2023-06-24T02:18:04;102340.59;;;19.26;80.26
66945;BME280;53853;51.982;5.928;2023-06-24T02:20:37;102332.66;;;19.24;79.84
66945;BME280;53853;51.982;5.928;2023-06-24T02:23:09;102338.22;;;19.23;80.24
66945;BME280;53853;51.982;5.928;2023-06-24T02:25:41;102339.22;;;19.22;80.38
66945;BME280;53853;51.982;5.928;2023-06-24T02:28:11;102342.94;;;19.21;80.14
66945;BME280;53853;51.982;5.928;2023-06-24T02:30:42;102335.88;;;19.19;80.22
66945;BME280;53853;51.982;5.928;2023-06-24T02:33:17;102338.75;;;19.18;80.01
66945;BME280;53853;51.982;5.928;2023-06-24T02:35:47;102338.06;;;19.16;80.12
66945;BME280;53853;51.982;5.928;2023-06-24T02:38:17;102332.16;;;19.12;79.70
66945;BME280;53853;51.982;5.928;2023-06-24T02:40:49;102333.34;;;19.10;80.34
66945;BME280;53853;51.982;5.928;2023-06-24T02:43:19;102326.41;;;19.07;80.38
66945;BME280;53853;51.982;5.928;2023-06-24T02:45:49;102318.81;;;19.03;80.61
66945;BME280;53853;51.982;5.928;2023-06-24T02:48:23;102325.38;;;19.00;80.69
66945;BME280;53853;51.982;5.928;2023-06-24T02:50:53;102322.34;;;18.95;80.46
66945;BME280;53853;51.982;5.928;2023-06-24T02:53:24;102315.63;;;18.91;80.89
66945;BME280;53853;51.982;5.928;2023-06-24T02:55:56;102318.81;;;18.86;80.81
66945;BME280;53853;51.982;5.928;2023-06-24T02:58:27;102321.69;;;18.85;80.63
66945;BME280;53853;51.982;5.928;2023-06-24T03:01:11;102323.00;;;18.80;80.89
66945;BME280;53853;51.982;5.928;2023-06-24T03:03:50;102330.59;;;18.77;81.02
66945;BME280;53853;51.982;5.928;2023-06-24T03:06:21;102327.41;;;18.73;81.19
66945;BME280;53853;51.982;5.928;2023-06-24T03:08:58;102326.03;;;18.69;81.18
66945;BME280;53853;51.982;5.928;2023-06-24T03:11:30;102337.84;;;18.68;81.22
66945;BME280;53853;51.982;5.928;2023-06-24T03:14:01;102339.03;;;18.65;81.39
66945;BME280;53853;51.982;5.928;2023-06-24T03:16:42;102336.00;;;18.60;81.61
66945;BME280;53853;51.982;5.928;2023-06-24T03:19:17;102335.63;;;18.55;81.16
66945;BME280;53853;51.982;5.928;2023-06-24T03:21:47;102336.81;;;18.53;81.37
66945;BME280;53853;51.982;5.928;2023-06-24T03:24:17;102337.81;;;18.52;81.75
66945;BME280;53853;51.982;5.928;2023-06-24T03:26:49;102328.03;;;18.51;81.72
66945;BME280;53853;51.982;5.928;2023-06-24T03:29:26;102328.50;;;18.46;81.73
66945;BME280;53853;51.982;5.928;2023-06-24T03:32:02;102331.38;;;18.44;81.83
66945;BME280;53853;51.982;5.928;2023-06-24T03:34:34;102331.75;;;18.41;81.73
66945;BME280;53853;51.982;5.928;2023-06-24T03:37:05;102333.75;;;18.39;81.47
66945;BME280;53853;51.982;5.928;2023-06-24T03:39:38;102336.59;;;18.38;81.53
66945;BME280;53853;51.982;5.928;2023-06-24T03:42:08;102332.06;;;18.38;81.66
66945;BME280;53853;51.982;5.928;2023-06-24T03:44:38;102334.75;;;18.38;81.62
66945;BME280;53853;51.982;5.928;2023-06-24T03:47:08;102331.19;;;18.38;81.94
66945;BME280;53853;51.982;5.928;2023-06-24T03:49:41;102327.66;;;18.37;81.99
66945;BME280;53853;51.982;5.928;2023-06-24T03:52:11;102327.16;;;18.34;81.80
66945;BME280;53853;51.982;5.928;2023-06-24T03:54:41;102329.00;;;18.33;81.95
66945;BME280;53853;51.982;5.928;2023-06-24T03:57:12;102331.84;;;18.32;81.86
66945;BME280;53853;51.982;5.928;2023-06-24T03:59:42;102331.03;;;18.31;81.72
66945;BME280;53853;51.982;5.928;2023-06-24T04:02:11;102335.59;;;18.31;81.78
66945;BME280;53853;51.982;5.928;2023-06-24T04:04:45;102336.59;;;18.29;81.66
66945;BME280;53853;51.982;5.928;2023-06-24T04:07:18;102336.59;;;18.29;82.36
66945;BME280;53853;51.982;5.928;2023-06-24T04:09:56;102333.06;;;18.29;82.37
66945;BME280;53853;51.982;5.928;2023-06-24T04:12:26;102340.13;;;18.30;82.26
66945;BME280;53853;51.982;5.928;2023-06-24T04:14:56;102339.78;;;18.33;81.86
66945;BME280;53853;51.982;5.928;2023-06-24T04:17:26;102329.00;;;18.33;81.86
66945;BME280;53853;51.982;5.928;2023-06-24T04:20:02;102332.56;;;18.34;81.93
66945;BME280;53853;51.982;5.928;2023-06-24T04:22:35;102336.75;;;18.36;82.02
66945;BME280;53853;51.982;5.928;2023-06-24T04:25:06;102342.88;;;18.38;82.02
66945;BME280;53853;51.982;5.928;2023-06-24T04:27:36;102338.97;;;18.41;82.03
66945;BME280;53853;51.982;5.928;2023-06-24T04:30:09;102338.63;;;18.44;81.77
66945;BME280;53853;51.982;5.928;2023-06-24T04:32:39;102336.63;;;18.46;81.69
66945;BME280;53853;51.982;5.928;2023-06-24T04:35:14;102338.16;;;18.49;81.54
66945;BME280;53853;51.982;5.928;2023-06-24T04:37:44;102335.97;;;18.52;81.76
66945;BME280;53853;51.982;5.928;2023-06-24T04:40:16;102339.19;;;18.56;81.64
66945;BME280;53853;51.982;5.928;2023-06-24T04:42:46;102338.00;;;18.58;81.29
66945;BME280;53853;51.982;5.928;2023-06-24T04:45:16;102342.91;;;18.63;81.38
66945;BME280;53853;51.982;5.928;2023-06-24T04:47:46;102348.63;;;18.68;81.38
66945;BME280;53853;51.982;5.928;2023-06-24T04:50:19;102352.69;;;18.72;81.41
66945;BME280;53853;51.982;5.928;2023-06-24T04:52:52;102354.06;;;18.76;81.93
66945;BME280;53853;51.982;5.928;2023-06-24T04:55:23;102347.47;;;18.79;82.04
66945;BME280;53853;51.982;5.928;2023-06-24T04:57:53;102350.69;;;18.82;81.61
66945;BME280;53853;51.982;5.928;2023-06-24T05:00:23;102348.38;;;18.88;82.34
66945;BME280;53853;51.982;5.928;2023-06-24T05:02:53;102342.63;;;18.91;82.29
66945;BME280;53853;51.982;5.928;2023-06-24T05:05:26;102344.84;;;18.95;82.14
66945;BME280;53853;51.982;5.928;2023-06-24T05:07:56;102338.91;;;19.00;81.86
66945;BME280;53853;51.982;5.928;2023-06-24T05:10:26;102339.41;;;19.04;82.20
66945;BME280;53853;51.982;5.928;2023-06-24T05:12:56;102335.19;;;19.09;82.40
66945;BME280;53853;51.982;5.928;2023-06-24T05:15:25;102335.19;;;19.17;82.67
66945;BME280;53853;51.982;5.928;2023-06-24T05:17:56;102336.34;;;19.23;82.45
66945;BME280;53853;51.982;5.928;2023-06-24T05:20:29;102333.47;;;19.33;82.76
66945;BME280;53853;51.982;5.928;2023-06-24T05:22:59;102333.63;;;19.40;83.02
66945;BME280;53853;51.982;5.928;2023-06-24T05:25:29;102338.88;;;19.49;82.98
66945;BME280;53853;51.982;5.928;2023-06-24T05:27:59;102338.84;;;19.58;82.50
66945;BME280;53853;51.982;5.928;2023-06-24T05:30:29;102336.94;;;19.66;82.70
66945;BME280;53853;51.982;5.928;2023-06-24T05:32:58;102340.16;;;19.78;81.82
66945;BME280;53853;51.982;5.928;2023-06-24T05:35:31;102357.34;;;20.02;81.56
66945;BME280;53853;51.982;5.928;2023-06-24T05:38:01;102357.50;;;20.32;81.32
66945;BME280;53853;51.982;5.928;2023-06-24T05:40:31;102349.50;;;20.70;81.89
66945;BME280;53853;51.982;5.928;2023-06-24T05:43:01;102354.75;;;20.94;73.78
66945;BME280;53853;51.982;5.928;2023-06-24T05:45:31;102358.13;;;21.34;76.31
66945;BME280;53853;51.982;5.928;2023-06-24T05:48:02;102346.31;;;21.65;76.59
66945;BME280;53853;51.982;5.928;2023-06-24T05:50:35;102357.25;;;21.87;75.75
66945;BME280;53853;51.982;5.928;2023-06-24T05:53:05;102348.66;;;21.98;71.59
66945;BME280;53853;51.982;5.928;2023-06-24T05:55:35;102350.97;;;22.01;66.69
66945;BME280;53853;51.982;5.928;2023-06-24T05:58:08;102353.03;;;21.99;63.74
66945;BME280;53853;51.982;5.928;2023-06-24T06:00:38;102356.13;;;21.96;64.14
66945;BME280;53853;51.982;5.928;2023-06-24T06:03:07;102365.31;;;21.95;66.00
66945;BME280;53853;51.982;5.928;2023-06-24T06:06:11;102356.50;;;21.93;64.46
66945;BME280;53853;51.982;5.928;2023-06-24T06:08:41;102359.13;;;21.86;61.93
66945;BME280;53853;51.982;5.928;2023-06-24T06:11:11;102368.03;;;21.80;63.31
66945;BME280;53853;51.982;5.928;2023-06-24T06:13:41;102368.94;;;21.73;62.43
66945;BME280;53853;51.982;5.928;2023-06-24T06:16:12;102365.50;;;21.64;62.28
66945;BME280;53853;51.982;5.928;2023-06-24T06:18:42;102358.94;;;21.58;64.09
66945;BME280;53853;51.982;5.928;2023-06-24T06:21:15;102358.00;;;21.51;64.52
66945;BME280;53853;51.982;5.928;2023-06-24T06:23:45;102360.38;;;21.46;64.49
66945;BME280;53853;51.982;5.928;2023-06-24T06:26:15;102362.25;;;21.45;66.14
66945;BME280;53853;51.982;5.928;2023-06-24T06:28:45;102368.06;;;21.42;61.50
66945;BME280;53853;51.982;5.928;2023-06-24T06:31:16;102365.25;;;21.35;57.93
66945;BME280;53853;51.982;5.928;2023-06-24T06:33:46;102369.84;;;21.35;62.39
66945;BME280;53853;51.982;5.928;2023-06-24T06:36:19;102364.41;;;21.35;63.31
66945;BME280;53853;51.982;5.928;2023-06-24T06:38:49;102363.19;;;21.38;64.97
66945;BME280;53853;51.982;5.928;2023-06-24T06:41:19;102360.09;;;21.41;64.71
66945;BME280;53853;51.982;5.928;2023-06-24T06:43:51;102355.34;;;21.43;65.95
66945;BME280;53853;51.982;5.928;2023-06-24T06:46:21;102362.06;;;21.47;68.07
66945;BME280;53853;51.982;5.928;2023-06-24T06:48:51;102369.19;;;21.48;63.98
66945;BME280;53853;51.982;5.928;2023-06-24T06:51:23;102365.47;;;21.49;64.80
66945;BME280;53853;51.982;5.928;2023-06-24T06:53:54;102368.88;;;21.51;62.56
66945;BME280;53853;51.982;5.928;2023-06-24T06:56:24;102368.13;;;21.57;61.80
66945;BME280;53853;51.982;5.928;2023-06-24T06:58:54;102372.78;;;21.63;62.12
66945;BME280;53853;51.982;5.928;2023-06-24T07:01:24;102378.13;;;21.71;64.81
66945;BME280;53853;51.982;5.928;2023-06-24T07:03:54;102370.66;;;21.74;61.20
66945;BME280;53853;51.982;5.928;2023-06-24T07:06:27;102373.53;;;21.72;60.92
66945;BME280;53853;51.982;5.928;2023-06-24T07:08:59;102370.38;;;21.68;62.01
66945;BME280;53853;51.982;5.928;2023-06-24T07:11:29;102380.16;;;21.69;64.09
66945;BME280;53853;51.982;5.928;2023-06-24T07:13:59;102380.84;;;21.71;58.15
66945;BME280;53853;51.982;5.928;2023-06-24T07:16:29;102380.09;;;21.78;61.52
66945;BME280;53853;51.982;5.928;2023-06-24T07:18:59;102381.88;;;21.85;63.07
66945;BME280;53853;51.982;5.928;2023-06-24T07:21:31;102387.88;;;21.96;60.76
66945;BME280;53853;51.982;5.928;2023-06-24T07:24:01;102384.22;;;22.03;61.45
66945;BME280;53853;51.982;5.928;2023-06-24T07:26:31;102388.69;;;22.11;58.41
66945;BME280;53853;51.982;5.928;2023-06-24T07:29:01;102390.00;;;22.15;59.64
66945;BME280;53853;51.982;5.928;2023-06-24T07:31:31;102395.69;;;22.20;61.61
66945;BME280;53853;51.982;5.928;2023-06-24T07:34:01;102397.66;;;22.26;59.99
66945;BME280;53853;51.982;5.928;2023-06-24T07:36:33;102392.16;;;22.35;60.89
66945;BME280;53853;51.982;5.928;2023-06-24T07:39:03;102388.47;;;22.42;61.06
66945;BME280;53853;51.982;5.928;2023-06-24T07:41:33;102391.09;;;22.51;56.92
66945;BME280;53853;51.982;5.928;2023-06-24T07:44:03;102391.81;;;22.59;56.44
66945;BME280;53853;51.982;5.928;2023-06-24T07:46:34;102391.22;;;22.64;56.21
66945;BME280;53853;51.982;5.928;2023-06-24T07:49:04;102392.16;;;22.71;57.65
66945;BME280;53853;51.982;5.928;2023-06-24T07:51:36;102397.47;;;22.79;55.76
66945;BME280;53853;51.982;5.928;2023-06-24T07:54:06;102398.75;;;22.84;54.93
66945;BME280;53853;51.982;5.928;2023-06-24T07:56:36;102395.84;;;22.85;52.87
66945;BME280;53853;51.982;5.928;2023-06-24T07:59:06;102390.88;;;22.89;54.59
66945;BME280;53853;51.982;5.928;2023-06-24T08:01:35;102390.47;;;22.92;55.13
66945;BME280;53853;51.982;5.928;2023-06-24T08:04:05;102384.38;;;22.90;52.12
66945;BME280;53853;51.982;5.928;2023-06-24T08:06:38;102388.41;;;22.94;53.74
66945;BME280;53853;51.982;5.928;2023-06-24T08:09:07;102384.91;;;23.00;55.28
66945;BME280;53853;51.982;5.928;2023-06-24T08:11:37;102381.41;;;23.06;54.95
66945;BME280;53853;51.982;5.928;2023-06-24T08:14:07;102379.59;;;23.13;55.63
66945;BME280;53853;51.982;5.928;2023-06-24T08:16:38;102381.75;;;23.18;53.76
66945;BME280;53853;51.982;5.928;2023-06-24T08:19:08;102376.34;;;23.25;49.88
66945;BME280;53853;51.982;5.928;2023-06-24T08:21:40;102377.25;;;23.32;52.34
66945;BME280;53853;51.982;5.928;2023-06-24T08:24:10;102375.16;;;23.34;50.70
66945;BME280;53853;51.982;5.928;2023-06-24T08:26:40;102375.22;;;23.41;54.28
66945;BME280;53853;51.982;5.928;2023-06-24T08:29:10;102367.31;;;23.46;53.25
66945;BME280;53853;51.982;5.928;2023-06-24T08:31:40;102381.59;;;23.55;47.05
66945;BME280;53853;51.982;5.928;2023-06-24T08:34:10;102373.66;;;23.60;46.85
66945;BME280;53853;51.982;5.928;2023-06-24T08:36:42;102366.59;;;23.65;49.51
66945;BME280;53853;51.982;5.928;2023-06-24T08:39:12;102367.25;;;23.74;53.37
66945;BME280;53853;51.982;5.928;2023-06-24T08:41:42;102373.03;;;23.86;54.78
66945;BME280;53853;51.982;5.928;2023-06-24T08:44:12;102368.91;;;23.97;54.78
66945;BME280;53853;51.982;5.928;2023-06-24T08:46:42;102367.69;;;24.06;49.59
66945;BME280;53853;51.982;5.928;2023-06-24T08:49:21;102372.50;;;24.11;47.25
66945;BME280;53853;51.982;5.928;2023-06-24T08:52:01;102373.59;;;24.16;50.48
66945;BME280;53853;51.982;5.928;2023-06-24T08:54:35;102362.72;;;24.23;53.29
66945;BME280;53853;51.982;5.928;2023-06-24T08:57:06;102365.25;;;24.31;52.16
66945;BME280;53853;51.982;5.928;2023-06-24T08:59:42;102357.53;;;24.35;43.38
66945;BME280;53853;51.982;5.928;2023-06-24T09:02:12;102371.16;;;24.35;43.22
66945;BME280;53853;51.982;5.928;2023-06-24T09:04:42;102376.00;;;24.39;47.36
66945;BME280;53853;51.982;5.928;2023-06-24T09:07:25;102368.25;;;24.43;44.64
66945;BME280;53853;51.982;5.928;2023-06-24T09:09:56;102362.78;;;24.50;47.67
66945;BME280;53853;51.982;5.928;2023-06-24T09:12:27;102365.81;;;24.62;45.46
66945;BME280;53853;51.982;5.928;2023-06-24T09:14:57;102376.09;;;24.73;47.21
66945;BME280;53853;51.982;5.928;2023-06-24T09:17:27;102362.88;;;24.83;43.38
66945;BME280;53853;51.982;5.928;2023-06-24T09:20:04;102365.63;;;24.90;42.66
66945;BME280;53853;51.982;5.928;2023-06-24T09:22:40;102361.00;;;24.97;45.92
66945;BME280;53853;51.982;5.928;2023-06-24T09:25:17;102353.47;;;25.12;48.42
66945;BME280;53853;51.982;5.928;2023-06-24T09:27:50;102354.97;;;25.28;43.57
66945;BME280;53853;51.982;5.928;2023-06-24T09:30:24;102347.38;;;25.44;45.34
66945;BME280;53853;51.982;5.928;2023-06-24T09:32:55;102343.34;;;25.53;43.90
66945;BME280;53853;51.982;5.928;2023-06-24T09:35:27;102344.19;;;25.60;45.54
66945;BME280;53853;51.982;5.928;2023-06-24T09:38:00;102342.06;;;25.69;46.90
66945;BME280;53853;51.982;5.928;2023-06-24T09:40:31;102334.50;;;25.71;44.53
66945;BME280;53853;51.982;5.928;2023-06-24T09:43:04;102335.75;;;25.75;47.59
66945;BME280;53853;51.982;5.928;2023-06-24T09:45:35;102340.97;;;25.83;47.83
66945;BME280;53853;51.982;5.928;2023-06-24T09:48:05;102335.50;;;25.90;47.05
66945;BME280;53853;51.982;5.928;2023-06-24T09:50:35;102334.00;;;25.94;40.89
66945;BME280;53853;51.982;5.928;2023-06-24T09:53:08;102324.75;;;25.95;45.50
66945;BME280;53853;51.982;5.928;2023-06-24T09:55:39;102335.06;;;25.93;43.46
66945;BME280;53853;51.982;5.928;2023-06-24T09:58:11;102333.78;;;25.96;48.50
66945;BME280;53853;51.982;5.928;2023-06-24T10:00:42;102336.09;;;25.99;47.61
66945;BME280;53853;51.982;5.928;2023-06-24T10:03:12;102340.09;;;26.03;47.22
66945;BME280;53853;51.982;5.928;2023-06-24T10:05:43;102339.88;;;26.05;45.22
66945;BME280;53853;51.982;5.928;2023-06-24T10:08:15;102335.28;;;25.98;40.32
66945;BME280;53853;51.982;5.928;2023-06-24T10:10:45;102336.72;;;25.94;42.01
66945;BME280;53853;51.982;5.928;2023-06-24T10:13:15;102337.16;;;25.91;42.67
66945;BME280;53853;51.982;5.928;2023-06-24T10:15:46;102335.50;;;25.90;45.00
66945;BME280;53853;51.982;5.928;2023-06-24T10:18:31;102332.34;;;25.86;43.62
66945;BME280;53853;51.982;5.928;2023-06-24T10:21:02;102337.19;;;25.84;44.21
66945;BME280;53853;51.982;5.928;2023-06-24T10:23:41;102322.06;;;25.82;43.58
66945;BME280;53853;51.982;5.928;2023-06-24T10:26:23;102321.22;;;25.81;41.13
66945;BME280;53853;51.982;5.928;2023-06-24T10:29:10;102327.94;;;25.79;41.76
66945;BME280;53853;51.982;5.928;2023-06-24T10:31:53;102319.97;;;25.77;44.15
66945;BME280;53853;51.982;5.928;2023-06-24T10:34:29;102320.81;;;25.78;45.22
66945;BME280;53853;51.982;5.928;2023-06-24T10:37:01;102321.44;;;25.80;43.81
66945;BME280;53853;51.982;5.928;2023-06-24T10:39:50;102323.53;;;25.84;40.90
66945;BME280;53853;51.982;5.928;2023-06-24T10:42:31;102317.41;;;25.89;41.36
66945;BME280;53853;51.982;5.928;2023-06-24T10:45:02;102319.97;;;25.84;41.25
66945;BME280;53853;51.982;5.928;2023-06-24T10:47:44;102318.72;;;25.80;42.60
66945;BME280;53853;51.982;5.928;2023-06-24T10:50:15;102316.81;;;25.80;45.07
66945;BME280;53853;51.982;5.928;2023-06-24T10:52:47;102307.56;;;25.81;46.07
66945;BME280;53853;51.982;5.928;2023-06-24T10:55:19;102319.97;;;25.84;42.88
66945;BME280;53853;51.982;5.928;2023-06-24T10:57:49;102307.31;;;25.90;45.21
66945;BME280;53853;51.982;5.928;2023-06-24T11:00:21;102311.75;;;25.91;42.96
66945;BME280;53853;51.982;5.928;2023-06-24T11:02:51;102307.75;;;25.86;43.73
66945;BME280;53853;51.982;5.928;2023-06-24T11:05:21;102303.97;;;25.88;42.19
66945;BME280;53853;51.982;5.928;2023-06-24T11:07:51;102300.38;;;25.94;44.86
66945;BME280;53853;51.982;5.928;2023-06-24T11:10:23;102305.22;;;25.98;43.36
66945;BME280;53853;51.982;5.928;2023-06-24T11:12:54;102301.00;;;26.02;42.89
66945;BME280;53853;51.982;5.928;2023-06-24T11:15:25;102299.94;;;26.03;43.35
66945;BME280;53853;51.982;5.928;2023-06-24T11:17:55;102299.69;;;26.12;43.62
66945;BME280;53853;51.982;5.928;2023-06-24T11:20:25;102289.78;;;26.17;45.23
66945;BME280;53853;51.982;5.928;2023-06-24T11:22:55;102287.06;;;26.17;46.21
66945;BME280;53853;51.982;5.928;2023-06-24T11:25:27;102293.13;;;26.19;42.84
66945;BME280;53853;51.982;5.928;2023-06-24T11:27:58;102294.59;;;26.22;42.08
66945;BME280;53853;51.982;5.928;2023-06-24T11:30:27;102292.69;;;26.23;43.55
66945;BME280;53853;51.982;5.928;2023-06-24T11:32:57;102290.34;;;26.26;42.58
66945;BME280;53853;51.982;5.928;2023-06-24T11:35:27;102288.88;;;26.30;42.41
66945;BME280;53853;51.982;5.928;2023-06-24T11:38:02;102284.44;;;26.29;45.24
66945;BME280;53853;51.982;5.928;2023-06-24T11:40:34;102284.88;;;26.33;43.93
66945;BME280;53853;51.982;5.928;2023-06-24T11:43:04;102278.25;;;26.40;45.97
66945;BME280;53853;51.982;5.928;2023-06-24T11:45:35;102271.31;;;26.45;43.51
66945;BME280;53853;51.982;5.928;2023-06-24T11:48:05;102272.13;;;26.45;45.21
66945;BME280;53853;51.982;5.928;2023-06-24T11:50:39;102275.91;;;26.51;44.86
66945;BME280;53853;51.982;5.928;2023-06-24T11:53:09;102280.03;;;26.60;44.36
66945;BME280;53853;51.982;5.928;2023-06-24T11:55:41;102273.25;;;26.63;42.28
66945;BME280;53853;51.982;5.928;2023-06-24T11:58:19;102267.19;;;26.61;44.50
66945;BME280;53853;51.982;5.928;2023-06-24T12:00:49;102263.81;;;26.65;46.93
66945;BME280;53853;51.982;5.928;2023-06-24T12:03:23;102263.53;;;26.73;47.27
66945;BME280;53853;51.982;5.928;2023-06-24T12:05:54;102254.22;;;26.81;45.73
66945;BME280;53853;51.982;5.928;2023-06-24T12:08:24;102261.91;;;26.91;45.31
66945;BME280;53853;51.982;5.928;2023-06-24T12:10:56;102254.50;;;26.98;43.66
66945;BME280;53853;51.982;5.928;2023-06-24T12:13:26;102254.41;;;27.05;45.66
66945;BME280;53853;51.982;5.928;2023-06-24T12:15:56;102245.16;;;27.06;40.87
66945;BME280;53853;51.982;5.928;2023-06-24T12:18:25;102251.44;;;27.06;39.96
66945;BME280;53853;51.982;5.928;2023-06-24T12:20:55;102247.66;;;27.07;43.90
66945;BME280;53853;51.982;5.928;2023-06-24T12:23:25;102251.00;;;27.09;40.48
66945;BME280;53853;51.982;5.928;2023-06-24T12:25:58;102249.25;;;27.15;42.24
66945;BME280;53853;51.982;5.928;2023-06-24T12:28:28;102243.41;;;27.11;42.06
66945;BME280;53853;51.982;5.928;2023-06-24T12:30:58;102242.50;;;27.18;45.65
66945;BME280;53853;51.982;5.928;2023-06-24T12:33:28;102246.06;;;27.18;40.52
66945;BME280;53853;51.982;5.928;2023-06-24T12:35:59;102255.13;;;27.19;40.20
66945;BME280;53853;51.982;5.928;2023-06-24T12:38:29;102243.53;;;27.17;41.83
66945;BME280;53853;51.982;5.928;2023-06-24T12:41:01;102240.34;;;27.20;44.50
66945;BME280;53853;51.982;5.928;2023-06-24T12:43:32;102241.94;;;27.27;45.99
66945;BME280;53853;51.982;5.928;2023-06-24T12:46:02;102241.91;;;27.34;39.26
66945;BME280;53853;51.982;5.928;2023-06-24T12:48:32;102239.78;;;27.36;40.57
66945;BME280;53853;51.982;5.928;2023-06-24T12:51:02;102237.88;;;27.37;41.83
66945;BME280;53853;51.982;5.928;2023-06-24T12:53:32;102238.56;;;27.32;39.82
66945;BME280;53853;51.982;5.928;2023-06-24T12:56:05;102226.47;;;27.40;41.30
66945;BME280;53853;51.982;5.928;2023-06-24T12:58:35;102228.53;;;27.44;43.16
66945;BME280;53853;51.982;5.928;2023-06-24T13:01:05;102228.22;;;27.53;40.86
66945;BME280;53853;51.982;5.928;2023-06-24T13:03:35;102226.06;;;27.55;41.08
66945;BME280;53853;51.982;5.928;2023-06-24T13:06:05;102222.28;;;27.56;39.45
66945;BME280;53853;51.982;5.928;2023-06-24T13:08:35;102215.06;;;27.61;41.28
66945;BME280;53853;51.982;5.928;2023-06-24T13:11:07;102225.47;;;27.71;44.02
66945;BME280;53853;51.982;5.928;2023-06-24T13:13:37;102220.25;;;27.81;40.38
66945;BME280;53853;51.982;5.928;2023-06-24T13:16:07;102219.25;;;27.94;38.45
66945;BME280;53853;51.982;5.928;2023-06-24T13:18:37;102220.81;;;28.02;40.56
66945;BME280;53853;51.982;5.928;2023-06-24T13:21:07;102206.06;;;28.03;38.77